createdAt,value
2018-09-03T00:00:23.433Z,16.43
2018-09-03T00:02:51.646Z,16.43
2018-09-03T00:05:19.883Z,16.40
2018-09-03T00:07:48.826Z,16.45
2018-09-03T00:10:17.102Z,16.40
2018-09-03T00:12:45.290Z,16.39
2018-09-03T00:15:13.690Z,16.29
2018-09-03T00:17:42.201Z,16.19
2018-09-03T00:20:10.422Z,16.06
2018-09-03T00:22:38.606Z,16.21
2018-09-03T00:25:07.713Z,16.30
2018-09-03T00:27:36.221Z,16.26
2018-09-03T00:30:04.419Z,15.92
2018-09-03T00:32:38.185Z,15.92
2018-09-03T00:35:12.329Z,16.15
2018-09-03T00:37:46.097Z,16.10
2018-09-03T00:40:19.526Z,16.08
2018-09-03T00:42:53.049Z,16.04
2018-09-03T00:45:26.653Z,16.06
2018-09-03T00:47:54.931Z,16.04
2018-09-03T00:50:23.199Z,16.06
2018-09-03T00:52:51.381Z,16.02
2018-09-03T00:55:19.658Z,16.00
2018-09-03T00:57:47.941Z,15.90
2018-09-03T01:00:16.123Z,15.79
2018-09-03T01:02:44.305Z,15.70
2018-09-03T01:05:12.551Z,15.68
2018-09-03T01:07:40.733Z,15.55
2018-09-03T01:10:08.927Z,15.60
2018-09-03T01:12:37.236Z,15.63
2018-09-03T01:15:05.362Z,15.70
2018-09-03T01:17:33.537Z,15.61
2018-09-03T01:20:02.290Z,15.66
2018-09-03T01:22:30.486Z,15.85
2018-09-03T01:24:58.775Z,16.00
2018-09-03T01:27:26.966Z,15.86
2018-09-03T01:29:55.408Z,15.95
2018-09-03T01:32:23.588Z,15.83
2018-09-03T01:34:51.865Z,15.90
2018-09-03T01:37:20.066Z,16.01
2018-09-03T01:39:48.335Z,16.01
2018-09-03T01:42:16.617Z,16.05
2018-09-03T01:44:44.802Z,16.02
2018-09-03T01:47:13.041Z,15.99
2018-09-03T01:49:41.233Z,16.01
2018-09-03T01:52:09.413Z,16.03
2018-09-03T01:54:37.685Z,16.02
2018-09-03T01:57:06.045Z,16.05
2018-09-03T01:59:34.645Z,15.98
2018-09-03T02:02:03.107Z,15.94
2018-09-03T02:04:31.295Z,15.78
2018-09-03T02:06:59.573Z,15.91
2018-09-03T02:09:27.866Z,15.95
2018-09-03T02:11:56.121Z,15.85
2018-09-03T02:14:24.714Z,15.79
2018-09-03T02:16:52.888Z,15.66
2018-09-03T02:19:21.160Z,15.72
2018-09-03T02:21:49.622Z,15.73
2018-09-03T02:24:18.082Z,15.79
2018-09-03T02:26:46.282Z,15.73
2018-09-03T02:29:14.470Z,15.72
2018-09-03T02:31:42.731Z,15.73
2018-09-03T02:34:11.336Z,15.71
2018-09-03T02:36:39.625Z,15.68
2018-09-03T02:39:08.499Z,15.58
2018-09-03T02:41:36.725Z,15.59
2018-09-03T02:44:04.954Z,15.53
2018-09-03T02:46:33.433Z,15.54
2018-09-03T02:49:01.661Z,15.57
2018-09-03T02:51:29.833Z,15.55
2018-09-03T02:53:58.057Z,15.58
2018-09-03T02:56:26.355Z,15.59
2018-09-03T02:58:54.525Z,15.63
2018-09-03T03:01:22.773Z,15.51
2018-09-03T03:03:50.973Z,15.67
2018-09-03T03:06:19.176Z,15.65
2018-09-03T03:08:47.344Z,15.75
2018-09-03T03:11:15.687Z,15.75
2018-09-03T03:13:43.954Z,15.55
2018-09-03T03:16:12.234Z,15.74
2018-09-03T03:18:40.606Z,15.73
2018-09-03T03:21:08.882Z,15.77
2018-09-03T03:23:37.040Z,15.80
2018-09-03T03:26:05.298Z,15.83
2018-09-03T03:28:33.464Z,15.81
2018-09-03T03:31:01.650Z,15.76
2018-09-03T03:33:29.848Z,15.81
2018-09-03T03:35:58.241Z,15.86
2018-09-03T03:38:26.421Z,15.81
2018-09-03T03:40:54.636Z,15.83
2018-09-03T03:43:23.660Z,15.80
2018-09-03T03:45:51.881Z,15.76
2018-09-03T03:48:20.121Z,15.56
2018-09-03T03:50:48.389Z,15.67
2018-09-03T03:53:16.569Z,15.85
2018-09-03T03:55:44.753Z,15.88
2018-09-03T03:58:12.930Z,15.88
2018-09-03T04:00:41.142Z,15.94
2018-09-03T04:03:09.391Z,15.92
2018-09-03T04:05:37.597Z,16.03
2018-09-03T04:08:05.777Z,16.19
2018-09-03T04:10:33.992Z,16.14
2018-09-03T04:13:05.901Z,16.26
2018-09-03T04:15:34.802Z,16.24
2018-09-03T04:18:03.591Z,16.23
2018-09-03T04:20:31.776Z,16.22
2018-09-03T04:22:59.971Z,16.30
2018-09-03T04:25:28.360Z,16.29
2018-09-03T04:27:56.906Z,16.10
2018-09-03T04:30:25.166Z,15.95
2018-09-03T04:32:53.898Z,16.03
2018-09-03T04:35:23.850Z,16.09
2018-09-03T04:37:52.528Z,16.05
2018-09-03T04:40:20.798Z,16.12
2018-09-03T04:42:48.973Z,16.11
2018-09-03T04:45:17.242Z,16.06
2018-09-03T04:47:45.426Z,16.00
2018-09-03T04:50:13.666Z,15.85
2018-09-03T04:52:41.865Z,16.09
2018-09-03T04:55:10.113Z,16.13
2018-09-03T04:57:38.236Z,16.12
2018-09-03T05:00:07.301Z,16.29
2018-09-03T05:02:35.498Z,16.42
2018-09-03T05:05:03.798Z,16.37
2018-09-03T05:07:32.046Z,16.41
2018-09-03T05:10:00.276Z,16.41
2018-09-03T05:12:28.708Z,16.33
2018-09-03T05:14:56.969Z,16.27
2018-09-03T05:17:25.162Z,16.15
2018-09-03T05:19:53.981Z,16.18
2018-09-03T05:22:22.183Z,16.03
2018-09-03T05:24:50.705Z,16.10
2018-09-03T05:27:18.992Z,16.15
2018-09-03T05:29:47.217Z,15.93
2018-09-03T05:32:15.414Z,16.08
2018-09-03T05:34:43.584Z,16.06
2018-09-03T05:37:11.765Z,16.07
2018-09-03T05:39:39.982Z,16.15
2018-09-03T05:42:08.533Z,16.22
2018-09-03T05:44:36.703Z,16.23
2018-09-03T05:47:05.923Z,16.31
2018-09-03T05:49:34.316Z,16.25
2018-09-03T05:52:02.515Z,16.41
2018-09-03T05:54:30.707Z,16.38
2018-09-03T05:56:58.902Z,16.49
2018-09-03T05:59:27.086Z,16.36
2018-09-03T06:01:55.370Z,16.01
2018-09-03T06:04:23.638Z,15.81
2018-09-03T06:06:51.833Z,16.15
2018-09-03T06:09:20.265Z,16.46
2018-09-03T06:11:48.465Z,16.32
2018-09-03T06:14:16.713Z,16.54
2018-09-03T06:16:45.217Z,16.46
2018-09-03T06:19:13.413Z,16.46
2018-09-03T06:21:41.664Z,16.23
2018-09-03T06:24:09.860Z,16.35
2018-09-03T06:26:38.202Z,16.11
2018-09-03T06:29:06.337Z,16.34
2018-09-03T06:31:34.573Z,16.57
2018-09-03T06:34:02.886Z,16.32
2018-09-03T06:36:31.137Z,16.27
2018-09-03T06:38:59.400Z,16.03
2018-09-03T06:41:27.664Z,16.32
2018-09-03T06:43:55.951Z,16.28
2018-09-03T06:46:24.200Z,16.62
2018-09-03T06:48:52.382Z,16.73
2018-09-03T06:51:20.676Z,16.48
2018-09-03T06:53:48.870Z,16.16
2018-09-03T06:56:17.114Z,16.21
2018-09-03T06:58:45.414Z,16.25
2018-09-03T07:01:13.938Z,16.96
2018-09-03T07:03:42.885Z,16.86
2018-09-03T07:06:11.414Z,17.22
2018-09-03T07:08:39.994Z,17.43
2018-09-03T07:11:08.461Z,17.45
2018-09-03T07:13:36.679Z,17.42
2018-09-03T07:16:04.906Z,17.62
2018-09-03T07:18:33.117Z,17.77
2018-09-03T07:21:01.437Z,18.02
2018-09-03T07:23:29.896Z,18.08
2018-09-03T07:25:58.089Z,18.43
2018-09-03T07:28:26.282Z,18.68
2018-09-03T07:30:54.469Z,18.36
2018-09-03T07:33:22.668Z,18.59
2018-09-03T07:35:50.864Z,18.56
2018-09-03T07:38:19.055Z,18.95
2018-09-03T07:40:47.326Z,18.89
2018-09-03T07:43:15.524Z,19.16
2018-09-03T07:45:43.716Z,18.48
2018-09-03T07:48:11.900Z,19.39
2018-09-03T07:50:40.480Z,20.39
2018-09-03T07:53:08.714Z,20.50
2018-09-03T07:55:37.197Z,20.80
2018-09-03T07:58:05.774Z,20.66
2018-09-03T08:00:34.046Z,20.93
2018-09-03T08:03:02.237Z,21.54
2018-09-03T08:05:30.493Z,21.86
2018-09-03T08:07:59.092Z,20.08
2018-09-03T08:10:27.410Z,19.89
2018-09-03T08:12:55.711Z,20.12
2018-09-03T08:15:23.903Z,19.75
2018-09-03T08:17:52.198Z,18.59
2018-09-03T08:20:20.778Z,19.22
2018-09-03T08:22:48.970Z,19.65
2018-09-03T08:25:17.166Z,20.58
2018-09-03T08:27:45.369Z,20.97
2018-09-03T08:30:13.617Z,21.55
2018-09-03T08:32:41.846Z,21.74
2018-09-03T08:35:11.679Z,21.35
2018-09-03T08:37:40.201Z,20.92
2018-09-03T08:40:08.545Z,20.19
2018-09-03T08:42:36.733Z,21.27
2018-09-03T08:45:04.985Z,21.38
2018-09-03T08:47:33.174Z,21.23
2018-09-03T08:50:01.416Z,20.85
2018-09-03T08:52:29.625Z,20.97
2018-09-03T08:54:58.139Z,21.02
2018-09-03T08:57:26.355Z,21.86
2018-09-03T08:59:54.613Z,20.85
2018-09-03T09:02:23.089Z,21.69
2018-09-03T09:04:51.378Z,22.17
2018-09-03T09:07:19.565Z,21.67
2018-09-03T09:09:47.772Z,22.14
2018-09-03T09:12:15.960Z,21.52
2018-09-03T09:14:44.140Z,22.21
2018-09-03T09:17:12.319Z,21.44
2018-09-03T09:19:40.538Z,22.78
2018-09-03T09:22:08.798Z,21.85
2018-09-03T09:24:37.255Z,22.24
2018-09-03T09:27:05.715Z,21.97
2018-09-03T09:29:34.253Z,21.58
2018-09-03T09:32:02.487Z,20.84
2018-09-03T09:34:30.700Z,21.18
2018-09-03T09:36:58.910Z,21.20
2018-09-03T09:39:27.110Z,21.80
2018-09-03T09:41:55.534Z,20.44
2018-09-03T09:44:23.799Z,22.05
2018-09-03T09:46:52.068Z,21.96
2018-09-03T09:49:20.306Z,21.95
2018-09-03T09:51:48.580Z,22.14
2018-09-03T09:54:17.425Z,21.61
2018-09-03T09:56:45.684Z,21.25
2018-09-03T09:59:13.886Z,22.27
2018-09-03T10:01:42.116Z,22.76
2018-09-03T10:04:10.681Z,22.30
2018-09-03T10:06:38.900Z,22.30
2018-09-03T10:09:07.954Z,22.05
2018-09-03T10:11:36.261Z,22.17
2018-09-03T10:14:04.451Z,22.52
2018-09-03T10:16:32.726Z,23.04
2018-09-03T10:19:01.001Z,23.73
2018-09-03T10:21:29.264Z,24.35
2018-09-03T10:23:57.562Z,24.95
2018-09-03T10:26:25.820Z,25.32
2018-09-03T10:28:54.006Z,26.30
2018-09-03T10:31:22.264Z,27.00
2018-09-03T10:33:50.806Z,27.29
2018-09-03T10:36:19.122Z,27.04
2018-09-03T10:38:47.933Z,27.35
2018-09-03T10:41:16.201Z,27.51
2018-09-03T10:43:44.674Z,26.24
2018-09-03T10:46:12.868Z,26.12
2018-09-03T10:48:41.065Z,25.33
2018-09-03T10:51:09.252Z,25.59
2018-09-03T10:53:37.441Z,26.07
2018-09-03T10:56:06.125Z,26.76
2018-09-03T10:58:34.357Z,26.22
2018-09-03T11:01:02.551Z,26.53
2018-09-03T11:03:30.721Z,26.66
2018-09-03T11:05:58.965Z,26.91
2018-09-03T11:08:27.160Z,27.64
2018-09-03T11:10:55.424Z,27.07
2018-09-03T11:13:30.336Z,27.19
2018-09-03T11:15:58.516Z,27.99
2018-09-03T11:18:28.286Z,29.54
2018-09-03T11:20:56.528Z,30.32
2018-09-03T11:23:24.764Z,37.54
2018-09-03T11:25:53.082Z,38.35
2018-09-03T11:28:21.269Z,35.50
2018-09-03T11:30:49.454Z,41.67
2018-09-03T11:33:17.862Z,42.23
2018-09-03T11:35:46.070Z,39.98
2018-09-03T11:38:14.592Z,40.91
2018-09-03T11:40:42.868Z,33.20
2018-09-03T11:43:11.080Z,32.33
2018-09-03T11:45:39.382Z,38.20
2018-09-03T11:48:07.644Z,33.90
2018-09-03T11:50:35.920Z,31.68
2018-09-03T11:53:04.109Z,31.72
2018-09-03T11:55:32.320Z,29.27
2018-09-03T11:58:00.512Z,30.52
2018-09-03T12:00:30.132Z,30.91
2018-09-03T12:02:58.885Z,31.07
2018-09-03T12:05:27.586Z,31.85
2018-09-03T12:07:55.805Z,35.87
2018-09-03T12:10:24.235Z,37.57
2018-09-03T12:12:52.453Z,30.56
2018-09-03T12:15:38.504Z,27.98
2018-09-03T12:18:06.749Z,26.47
2018-09-03T12:20:34.921Z,26.17
2018-09-03T12:23:03.391Z,26.30
2018-09-03T12:25:31.652Z,25.33
2018-09-03T12:27:59.935Z,24.91
2018-09-03T12:30:28.198Z,24.89
2018-09-03T12:32:56.377Z,24.59
2018-09-03T12:35:26.059Z,24.23
2018-09-03T12:37:54.286Z,24.34
2018-09-03T12:40:22.536Z,24.09
2018-09-03T12:42:50.853Z,23.92
2018-09-03T12:45:23.264Z,23.68
2018-09-03T12:47:51.414Z,22.78
2018-09-03T12:50:19.682Z,23.08
2018-09-03T12:52:47.883Z,22.21
2018-09-03T12:55:16.092Z,21.98
2018-09-03T12:57:44.270Z,23.01
2018-09-03T13:00:16.700Z,24.43
2018-09-03T13:02:45.037Z,23.00
2018-09-03T13:05:13.181Z,24.47
2018-09-03T13:07:41.608Z,24.58
2018-09-03T13:10:09.841Z,23.29
2018-09-03T13:12:38.079Z,24.76
2018-09-03T13:15:07.009Z,24.48
2018-09-03T13:17:35.189Z,25.68
2018-09-03T13:20:03.541Z,25.70
2018-09-03T13:22:31.747Z,25.40
2018-09-03T13:24:59.911Z,26.90
2018-09-03T13:27:28.072Z,29.33
2018-09-03T13:29:56.260Z,29.62
2018-09-03T13:32:24.436Z,28.17
2018-09-03T13:34:53.418Z,30.61
2018-09-03T13:37:21.586Z,29.68
2018-09-03T13:39:49.770Z,29.74
2018-09-03T13:42:18.093Z,30.60
2018-09-03T13:44:46.390Z,32.22
2018-09-03T13:47:14.560Z,34.87
2018-09-03T13:49:42.780Z,37.23
2018-09-03T13:52:11.062Z,38.33
2018-09-03T13:54:39.261Z,40.55
2018-09-03T13:57:07.858Z,33.32
2018-09-03T13:59:36.067Z,30.06
2018-09-03T14:02:04.365Z,30.96
2018-09-03T14:04:32.653Z,30.72
2018-09-03T14:07:00.905Z,29.73
2018-09-03T14:09:29.112Z,28.34
2018-09-03T14:11:57.367Z,29.32
2018-09-03T14:14:25.658Z,31.10
2018-09-03T14:16:53.837Z,31.08
2018-09-03T14:19:22.257Z,26.70
2018-09-03T14:21:50.465Z,24.98
2018-09-03T14:24:18.633Z,24.31
2018-09-03T14:26:46.837Z,24.74
2018-09-03T14:29:15.619Z,25.28
2018-09-03T14:31:43.879Z,24.21
2018-09-03T14:34:12.114Z,24.16
2018-09-03T14:36:40.552Z,24.44
2018-09-03T14:39:10.487Z,25.88
2018-09-03T14:41:38.890Z,26.53
2018-09-03T14:44:07.492Z,29.40
2018-09-03T14:46:35.792Z,33.09
2018-09-03T14:49:04.094Z,30.36
2018-09-03T14:51:32.510Z,29.62
2018-09-03T14:54:00.758Z,28.74
2018-09-03T14:56:28.935Z,26.91
2018-09-03T14:58:57.158Z,26.38
2018-09-03T15:01:26.206Z,26.85
2018-09-03T15:03:54.739Z,26.38
2018-09-03T15:06:22.925Z,25.57
2018-09-03T15:08:51.238Z,26.52
2018-09-03T15:11:19.456Z,25.96
2018-09-03T15:13:51.941Z,25.82
2018-09-03T15:16:20.165Z,25.37
2018-09-03T15:18:48.349Z,25.46
2018-09-03T15:21:16.533Z,26.39
2018-09-03T15:23:44.729Z,25.62
2018-09-03T15:26:13.050Z,26.53
2018-09-03T15:28:41.304Z,24.50
2018-09-03T15:31:09.601Z,24.88
2018-09-03T15:33:38.823Z,25.59
2018-09-03T15:36:07.138Z,25.67
2018-09-03T15:38:35.325Z,25.48
2018-09-03T15:41:03.600Z,25.81
2018-09-03T15:43:31.827Z,25.72
2018-09-03T15:46:00.120Z,25.76
2018-09-03T15:48:28.348Z,25.99
2018-09-03T15:50:56.578Z,26.24
2018-09-03T15:53:25.473Z,25.96
2018-09-03T15:55:53.758Z,26.13
2018-09-03T15:58:22.075Z,26.16
2018-09-03T16:00:50.260Z,25.85
2018-09-03T16:03:18.438Z,25.31
2018-09-03T16:05:46.698Z,25.29
2018-09-03T16:08:14.954Z,24.96
2018-09-03T16:10:43.156Z,24.77
2018-09-03T16:13:11.404Z,24.67
2018-09-03T16:15:39.691Z,24.62
2018-09-03T16:18:08.150Z,24.33
2018-09-03T16:20:36.623Z,23.43
2018-09-03T16:23:04.926Z,23.51
2018-09-03T16:25:33.130Z,23.43
2018-09-03T16:28:01.308Z,23.21
2018-09-03T16:30:29.504Z,23.26
2018-09-03T16:32:58.038Z,23.28
2018-09-03T16:35:27.782Z,22.90
2018-09-03T16:37:56.010Z,23.26
2018-09-03T16:40:24.295Z,23.07
2018-09-03T16:42:52.781Z,22.89
2018-09-03T16:45:21.077Z,22.71
2018-09-03T16:47:49.297Z,22.66
2018-09-03T16:50:17.653Z,22.51
2018-09-03T16:52:45.856Z,22.45
2018-09-03T16:55:14.107Z,22.54
2018-09-03T16:57:42.237Z,22.38
2018-09-03T17:00:10.507Z,21.96
2018-09-03T17:02:38.684Z,21.92
2018-09-03T17:05:07.054Z,21.73
2018-09-03T17:07:35.415Z,22.05
2018-09-03T17:10:04.035Z,21.99
2018-09-03T17:12:32.554Z,21.73
2018-09-03T17:15:00.721Z,21.63
2018-09-03T17:17:28.953Z,21.76
2018-09-03T17:19:57.220Z,21.63
2018-09-03T17:22:25.429Z,21.31
2018-09-03T17:24:53.684Z,21.60
2018-09-03T17:27:21.874Z,21.52
2018-09-03T17:29:50.138Z,21.27
2018-09-03T17:32:18.417Z,21.27
2018-09-03T17:34:46.813Z,21.12
2018-09-03T17:37:15.143Z,20.93
2018-09-03T17:39:43.321Z,20.99
2018-09-03T17:42:11.513Z,20.97
2018-09-03T17:44:39.777Z,20.93
2018-09-03T17:47:07.964Z,20.72
2018-09-03T17:49:36.439Z,20.61
2018-09-03T17:52:04.689Z,20.56
2018-09-03T17:54:33.172Z,20.57
2018-09-03T17:57:01.364Z,20.55
2018-09-03T17:59:29.847Z,20.58
2018-09-03T18:01:58.435Z,20.54
2018-09-03T18:04:26.714Z,20.39
2018-09-03T18:06:54.890Z,20.40
2018-09-03T18:09:23.060Z,20.37
2018-09-03T18:11:51.324Z,20.33
2018-09-03T18:14:19.805Z,20.34
2018-09-03T18:16:48.411Z,20.24
2018-09-03T18:19:16.694Z,20.13
2018-09-03T18:21:44.955Z,20.08
2018-09-03T18:24:13.116Z,19.99
2018-09-03T18:26:41.406Z,20.04
2018-09-03T18:29:09.713Z,19.79
2018-09-03T18:31:37.989Z,19.79
2018-09-03T18:34:06.193Z,19.87
2018-09-03T18:36:34.405Z,19.92
2018-09-03T18:39:02.696Z,20.02
2018-09-03T18:41:31.011Z,20.00
2018-09-03T18:43:59.233Z,19.79
2018-09-03T18:46:27.823Z,19.78
2018-09-03T18:48:56.013Z,19.67
2018-09-03T18:51:24.425Z,19.61
2018-09-03T18:53:52.736Z,19.54
2018-09-03T18:56:20.938Z,19.43
2018-09-03T18:58:49.508Z,19.52
2018-09-03T19:01:17.719Z,19.42
2018-09-03T19:03:45.900Z,19.31
2018-09-03T19:06:14.213Z,19.37
2018-09-03T19:08:42.504Z,19.36
2018-09-03T19:11:10.823Z,19.36
2018-09-03T19:13:39.016Z,19.22
2018-09-03T19:16:07.331Z,19.11
2018-09-03T19:18:35.750Z,19.14
2018-09-03T19:21:03.955Z,19.17
2018-09-03T19:23:32.168Z,19.18
2018-09-03T19:26:01.042Z,19.12
2018-09-03T19:28:29.314Z,19.16
2018-09-03T19:30:57.758Z,18.97
2018-09-03T19:33:25.949Z,18.99
2018-09-03T19:35:54.322Z,18.96
2018-09-03T19:38:22.523Z,18.88
2018-09-03T19:40:50.950Z,18.90
2018-09-03T19:43:19.195Z,18.81
2018-09-03T19:45:47.373Z,18.80
2018-09-03T19:48:15.648Z,18.87
2018-09-03T19:50:44.234Z,18.93
2018-09-03T19:53:12.492Z,18.92
2018-09-03T19:55:41.064Z,18.91
2018-09-03T19:58:09.259Z,18.86
2018-09-03T20:00:37.438Z,18.78
2018-09-03T20:03:05.710Z,18.76
2018-09-03T20:05:33.906Z,18.72
2018-09-03T20:08:02.099Z,18.80
2018-09-03T20:10:30.368Z,18.91
2018-09-03T20:12:58.612Z,18.82
2018-09-03T20:15:27.656Z,18.87
2018-09-03T20:17:56.340Z,18.85
2018-09-03T20:20:24.961Z,18.83
2018-09-03T20:22:53.534Z,18.76
2018-09-03T20:25:21.770Z,18.79
2018-09-03T20:27:50.002Z,18.85
2018-09-03T20:30:18.182Z,18.79
2018-09-03T20:32:46.494Z,18.84
2018-09-03T20:35:14.767Z,18.72
2018-09-03T20:37:42.941Z,18.81
2018-09-03T20:40:11.456Z,18.58
2018-09-03T20:42:39.644Z,18.71
2018-09-03T20:45:08.145Z,18.68
2018-09-03T20:47:36.413Z,18.68
2018-09-03T20:50:04.789Z,18.82
2018-09-03T20:52:33.333Z,18.86
2018-09-03T20:55:01.548Z,18.84
2018-09-03T20:57:29.744Z,18.78
2018-09-03T20:59:57.966Z,18.80
2018-09-03T21:02:26.290Z,18.65
2018-09-03T21:04:54.606Z,18.58
2018-09-03T21:07:22.876Z,18.56
2018-09-03T21:09:51.090Z,18.56
2018-09-03T21:12:19.286Z,18.24
2018-09-03T21:14:47.483Z,18.33
2018-09-03T21:17:15.742Z,18.45
2018-09-03T21:19:43.997Z,18.25
2018-09-03T21:22:12.222Z,18.28
2018-09-03T21:24:40.758Z,18.19
2018-09-03T21:27:09.056Z,18.32
2018-09-03T21:29:37.234Z,18.28
2018-09-03T21:32:05.781Z,18.37
2018-09-03T21:34:33.979Z,18.35
2018-09-03T21:37:02.542Z,18.35
2018-09-03T21:39:30.737Z,18.23
2018-09-03T21:41:59.102Z,18.34
2018-09-03T21:44:27.232Z,18.27
2018-09-03T21:46:55.509Z,18.33
2018-09-03T21:49:23.824Z,18.33
2018-09-03T21:51:52.266Z,18.26
2018-09-03T21:54:20.486Z,18.26
2018-09-03T21:56:48.750Z,18.27
2018-09-03T21:59:16.929Z,18.24
2018-09-03T22:01:45.226Z,18.15
2018-09-03T22:04:13.502Z,18.18
2018-09-03T22:06:41.677Z,18.20
2018-09-03T22:09:10.152Z,18.27
2018-09-03T22:11:38.557Z,18.18
2018-09-03T22:14:06.740Z,18.16
2018-09-03T22:16:34.976Z,18.22
2018-09-03T22:19:03.289Z,18.19
2018-09-03T22:21:31.637Z,18.20
2018-09-03T22:23:59.900Z,18.20
2018-09-03T22:26:28.177Z,18.20
2018-09-03T22:28:56.345Z,18.16
2018-09-03T22:31:24.520Z,18.17
2018-09-03T22:33:53.006Z,18.17
2018-09-03T22:37:24.542Z,18.11
2018-09-03T22:39:52.736Z,18.14
2018-09-03T22:42:24.680Z,18.15
2018-09-03T22:44:53.056Z,17.97
2018-09-03T22:47:21.252Z,18.08
2018-09-03T22:49:49.535Z,18.03
2018-09-03T22:52:17.714Z,18.06
2018-09-03T22:54:45.966Z,18.16
2018-09-03T22:57:14.156Z,17.98
2018-09-03T22:59:42.470Z,17.88
2018-09-03T23:02:10.651Z,18.00
2018-09-03T23:04:38.836Z,17.95
2018-09-03T23:07:07.053Z,17.95
2018-09-03T23:09:35.549Z,18.15
2018-09-03T23:12:04.013Z,17.85
2018-09-03T23:14:32.218Z,17.83
2018-09-03T23:17:03.550Z,17.88
2018-09-03T23:19:31.927Z,17.89
2018-09-03T23:22:00.177Z,17.85
2018-09-03T23:24:28.478Z,18.04
2018-09-03T23:26:56.753Z,18.07
2018-09-03T23:29:25.041Z,18.01
2018-09-03T23:31:53.280Z,17.88
2018-09-03T23:34:21.465Z,17.93
2018-09-03T23:36:49.640Z,17.89
2018-09-03T23:39:17.810Z,17.89
2018-09-03T23:41:46.096Z,17.83
2018-09-03T23:44:14.358Z,17.65
2018-09-03T23:46:42.637Z,17.69
2018-09-03T23:49:10.923Z,17.83
2018-09-03T23:51:39.092Z,17.94
2018-09-03T23:54:07.284Z,17.93
2018-09-03T23:56:35.478Z,17.90
2018-09-03T23:59:03.683Z,17.79
